sensor_id;sensor_type;location;lat;lon;timestamp;pressure;altitude;pressure_sealevel;temperature;humidity
12759;BME280;20944;47.048;15.390;2023-04-22T00:01:09;97248.97;;;9.01;100.00
12759;BME280;20944;47.048;15.390;2023-04-22T00:03:38;97337.19;;;9.56;100.00
12759;BME280;20944;47.048;15.390;2023-04-22T00:06:09;97353.50;;;9.64;100.00
12759;BME280;20944;47.048;15.390;2023-04-22T00:08:38;97354.97;;;9.73;100.00
12759;BME280;20944;47.048;15.390;2023-04-22T00:11:06;97297.56;;;9.39;100.00
12759;BME280;20944;47.048;15.390;2023-04-22T00:13:34;97344.91;;;9.59;100.00
12759;BME280;20944;47.048;15.390;2023-04-22T00:16:03;97353.16;;;9.77;100.00
12759;BME280;20944;47.048;15.390;2023-04-22T00:18:33;97334.22;;;9.67;100.00
12759;BME280;20944;47.048;15.390;2023-04-22T00:21:01;97357.59;;;9.73;100.00
12759;BME280;20944;47.048;15.390;2023-04-22T00:23:31;97346.38;;;9.69;100.00
12759;BME280;20944;47.048;15.390;2023-04-22T00:25:59;97344.13;;;9.57;100.00
12759;BME280;20944;47.048;15.390;2023-04-22T00:28:27;97251.50;;;9.04;100.00
12759;BME280;20944;47.048;15.390;2023-04-22T00:30:56;97302.13;;;9.32;100.00
12759;BME280;20944;47.048;15.390;2023-04-22T00:33:24;97236.72;;;9.03;100.00
12759;BME280;20944;47.048;15.390;2023-04-22T00:35:52;97327.63;;;9.54;100.00
12759;BME280;20944;47.048;15.390;2023-04-22T00:38:21;97332.66;;;9.61;100.00
12759;BME280;20944;47.048;15.390;2023-04-22T00:40:51;97303.88;;;9.32;100.00
12759;BME280;20944;47.048;15.390;2023-04-22T00:43:19;97332.25;;;9.45;100.00
12759;BME280;20944;47.048;15.390;2023-04-22T00:45:48;97338.44;;;9.43;100.00
12759;BME280;20944;47.048;15.390;2023-04-22T00:48:16;97334.94;;;9.42;100.00
12759;BME280;20944;47.048;15.390;2023-04-22T00:50:44;97335.41;;;9.26;100.00
12759;BME280;20944;47.048;15.390;2023-04-22T00:53:12;97337.81;;;9.33;100.00
12759;BME280;20944;47.048;15.390;2023-04-22T00:55:41;97337.69;;;9.38;100.00
12759;BME280;20944;47.048;15.390;2023-04-22T00:58:10;97339.69;;;9.28;100.00
12759;BME280;20944;47.048;15.390;2023-04-22T01:00:39;97344.22;;;9.22;100.00
12759;BME280;20944;47.048;15.390;2023-04-22T01:03:08;97341.94;;;9.09;100.00
12759;BME280;20944;47.048;15.390;2023-04-22T01:05:37;97335.94;;;9.06;100.00
12759;BME280;20944;47.048;15.390;2023-04-22T01:08:06;97329.94;;;9.02;100.00
12759;BME280;20944;47.048;15.390;2023-04-22T01:10:34;97318.03;;;8.90;100.00
12759;BME280;20944;47.048;15.390;2023-04-22T01:13:02;97323.97;;;8.97;100.00
12759;BME280;20944;47.048;15.390;2023-04-22T01:15:32;97333.34;;;9.04;100.00
12759;BME280;20944;47.048;15.390;2023-04-22T01:18:00;97318.31;;;8.81;100.00
12759;BME280;20944;47.048;15.390;2023-04-22T01:20:29;97308.06;;;8.74;100.00
12759;BME280;20944;47.048;15.390;2023-04-22T01:23:02;97318.56;;;8.71;100.00
12759;BME280;20944;47.048;15.390;2023-04-22T01:25:32;97345.59;;;8.70;100.00
12759;BME280;20944;47.048;15.390;2023-04-22T01:28:01;97324.19;;;8.55;100.00
12759;BME280;20944;47.048;15.390;2023-04-22T01:30:30;97338.81;;;8.61;100.00
12759;BME280;20944;47.048;15.390;2023-04-22T01:32:58;97342.19;;;8.66;100.00
12759;BME280;20944;47.048;15.390;2023-04-22T01:35:27;97323.19;;;8.59;100.00
12759;BME280;20944;47.048;15.390;2023-04-22T01:37:56;97342.22;;;8.64;100.00
12759;BME280;20944;47.048;15.390;2023-04-22T01:40:25;97341.41;;;8.62;100.00
12759;BME280;20944;47.048;15.390;2023-04-22T01:42:55;97297.69;;;8.33;100.00
12759;BME280;20944;47.048;15.390;2023-04-22T01:45:24;97337.06;;;8.63;100.00
12759;BME280;20944;47.048;15.390;2023-04-22T01:47:52;97340.50;;;8.63;100.00
12759;BME280;20944;47.048;15.390;2023-04-22T01:50:21;97236.59;;;8.06;100.00
12759;BME280;20944;47.048;15.390;2023-04-22T01:52:50;97294.81;;;8.46;100.00
12759;BME280;20944;47.048;15.390;2023-04-22T01:55:18;97336.69;;;8.77;100.00
12759;BME280;20944;47.048;15.390;2023-04-22T01:57:46;97301.59;;;8.53;100.00
12759;BME280;20944;47.048;15.390;2023-04-22T02:00:16;97335.19;;;8.68;100.00
12759;BME280;20944;47.048;15.390;2023-04-22T02:02:44;97329.31;;;8.58;100.00
12759;BME280;20944;47.048;15.390;2023-04-22T02:05:13;97329.47;;;8.52;100.00
12759;BME280;20944;47.048;15.390;2023-04-22T02:07:41;97315.81;;;8.43;100.00
12759;BME280;20944;47.048;15.390;2023-04-22T02:10:10;97317.38;;;8.48;100.00
12759;BME280;20944;47.048;15.390;2023-04-22T02:12:38;97332.97;;;8.51;100.00
12759;BME280;20944;47.048;15.390;2023-04-22T02:15:08;97329.75;;;8.40;100.00
12759;BME280;20944;47.048;15.390;2023-04-22T02:17:40;97329.97;;;8.31;100.00
12759;BME280;20944;47.048;15.390;2023-04-22T02:20:10;97337.91;;;8.26;100.00
12759;BME280;20944;47.048;15.390;2023-04-22T02:22:39;97316.34;;;8.17;100.00
12759;BME280;20944;47.048;15.390;2023-04-22T02:25:10;97277.78;;;7.94;100.00
12759;BME280;20944;47.048;15.390;2023-04-22T02:27:39;97332.78;;;8.22;100.00
12759;BME280;20944;47.048;15.390;2023-04-22T02:30:08;97319.19;;;8.07;100.00
12759;BME280;20944;47.048;15.390;2023-04-22T02:32:38;97288.94;;;8.00;100.00
12759;BME280;20944;47.048;15.390;2023-04-22T02:35:07;97287.03;;;7.68;100.00
12759;BME280;20944;47.048;15.390;2023-04-22T02:37:35;97329.69;;;8.06;100.00
12759;BME280;20944;47.048;15.390;2023-04-22T02:40:04;97326.13;;;8.08;100.00
12759;BME280;20944;47.048;15.390;2023-04-22T02:42:34;97273.03;;;7.72;100.00
12759;BME280;20944;47.048;15.390;2023-04-22T02:45:02;97294.81;;;7.70;100.00
12759;BME280;20944;47.048;15.390;2023-04-22T02:47:31;97326.47;;;7.93;100.00
12759;BME280;20944;47.048;15.390;2023-04-22T02:50:00;97334.09;;;8.02;100.00
12759;BME280;20944;47.048;15.390;2023-04-22T02:52:29;97295.28;;;7.89;100.00
12759;BME280;20944;47.048;15.390;2023-04-22T02:54:57;97326.22;;;8.05;100.00
12759;BME280;20944;47.048;15.390;2023-04-22T02:57:25;97316.63;;;8.04;100.00
12759;BME280;20944;47.048;15.390;2023-04-22T02:59:53;97322.03;;;7.97;100.00
12759;BME280;20944;47.048;15.390;2023-04-22T03:02:22;97323.03;;;7.91;100.00
12759;BME280;20944;47.048;15.390;2023-04-22T03:04:51;97325.53;;;7.96;100.00
12759;BME280;20944;47.048;15.390;2023-04-22T03:07:21;97306.66;;;7.86;100.00
12759;BME280;20944;47.048;15.390;2023-04-22T03:09:49;97306.66;;;7.86;100.00
12759;BME280;20944;47.048;15.390;2023-04-22T03:12:17;97259.34;;;7.63;100.00
12759;BME280;20944;47.048;15.390;2023-04-22T03:14:46;97294.72;;;7.74;100.00
12759;BME280;20944;47.048;15.390;2023-04-22T03:17:14;97322.44;;;7.78;100.00
12759;BME280;20944;47.048;15.390;2023-04-22T03:19:42;97323.25;;;7.82;100.00
12759;BME280;20944;47.048;15.390;2023-04-22T03:22:10;97307.91;;;7.67;100.00
12759;BME280;20944;47.048;15.390;2023-04-22T03:24:40;97328.63;;;7.74;100.00
12759;BME280;20944;47.048;15.390;2023-04-22T03:27:08;97318.97;;;7.79;100.00
12759;BME280;20944;47.048;15.390;2023-04-22T03:29:36;97298.50;;;7.60;100.00
12759;BME280;20944;47.048;15.390;2023-04-22T03:32:05;97307.19;;;7.62;100.00
12759;BME280;20944;47.048;15.390;2023-04-22T03:34:33;97326.13;;;7.70;100.00
12759;BME280;20944;47.048;15.390;2023-04-22T03:37:03;97325.31;;;7.66;100.00
12759;BME280;20944;47.048;15.390;2023-04-22T03:39:31;97325.31;;;7.66;100.00
12759;BME280;20944;47.048;15.390;2023-04-22T03:42:00;97327.06;;;7.66;100.00
12759;BME280;20944;47.048;15.390;2023-04-22T03:44:28;97315.91;;;7.61;100.00
12759;BME280;20944;47.048;15.390;2023-04-22T03:46:57;97271.88;;;7.45;100.00
12759;BME280;20944;47.048;15.390;2023-04-22T03:49:25;97332.06;;;7.76;100.00
12759;BME280;20944;47.048;15.390;2023-04-22T03:51:53;97131.97;;;6.68;100.00
12759;BME280;20944;47.048;15.390;2023-04-22T03:54:21;97308.59;;;7.76;100.00
12759;BME280;20944;47.048;15.390;2023-04-22T03:56:50;97325.91;;;7.79;100.00
12759;BME280;20944;47.048;15.390;2023-04-22T03:59:19;97329.72;;;7.64;100.00
12759;BME280;20944;47.048;15.390;2023-04-22T04:01:50;97327.09;;;7.64;100.00
12759;BME280;20944;47.048;15.390;2023-04-22T04:04:18;97324.78;;;7.50;100.00
12759;BME280;20944;47.048;15.390;2023-04-22T04:06:49;97311.94;;;7.41;100.00
12759;BME280;20944;47.048;15.390;2023-04-22T04:09:17;97332.56;;;7.52;100.00
12759;BME280;20944;47.048;15.390;2023-04-22T04:11:45;97329.06;;;7.53;100.00
12759;BME280;20944;47.048;15.390;2023-04-22T04:14:13;97312.72;;;7.45;100.00
12759;BME280;20944;47.048;15.390;2023-04-22T04:16:43;97304.09;;;7.41;100.00
12759;BME280;20944;47.048;15.390;2023-04-22T04:19:11;97334.75;;;7.72;100.00
12759;BME280;20944;47.048;15.390;2023-04-22T04:21:39;97312.34;;;7.63;100.00
12759;BME280;20944;47.048;15.390;2023-04-22T04:24:08;97333.53;;;7.88;100.00
12759;BME280;20944;47.048;15.390;2023-04-22T04:26:36;97333.19;;;8.05;100.00
12759;BME280;20944;47.048;15.390;2023-04-22T04:29:04;97291.94;;;7.82;100.00
12759;BME280;20944;47.048;15.390;2023-04-22T04:31:32;97329.59;;;8.09;100.00
12759;BME280;20944;47.048;15.390;2023-04-22T04:34:02;97300.59;;;7.84;100.00
12759;BME280;20944;47.048;15.390;2023-04-22T04:36:32;97311.88;;;7.86;100.00
12759;BME280;20944;47.048;15.390;2023-04-22T04:39:00;97344.47;;;8.05;100.00
12759;BME280;20944;47.048;15.390;2023-04-22T04:41:28;97350.63;;;8.01;100.00
12759;BME280;20944;47.048;15.390;2023-04-22T04:43:57;97354.91;;;8.05;100.00
12759;BME280;20944;47.048;15.390;2023-04-22T04:46:26;97249.19;;;7.50;100.00
12759;BME280;20944;47.048;15.390;2023-04-22T04:48:55;97353.66;;;8.22;100.00
12759;BME280;20944;47.048;15.390;2023-04-22T04:51:25;97342.44;;;8.18;100.00
12759;BME280;20944;47.048;15.390;2023-04-22T04:53:53;97343.03;;;8.29;100.00
12759;BME280;20944;47.048;15.390;2023-04-22T04:56:22;97351.31;;;8.50;100.00
12759;BME280;20944;47.048;15.390;2023-04-22T04:58:50;97360.91;;;8.83;100.00
12759;BME280;20944;47.048;15.390;2023-04-22T05:01:18;97349.34;;;8.94;100.00
12759;BME280;20944;47.048;15.390;2023-04-22T05:03:46;97357.56;;;9.11;100.00
12759;BME280;20944;47.048;15.390;2023-04-22T05:06:15;97340.19;;;9.10;100.00
12759;BME280;20944;47.048;15.390;2023-04-22T05:08:44;97322.91;;;9.04;100.00
12759;BME280;20944;47.048;15.390;2023-04-22T05:11:13;97208.88;;;8.38;100.00
12759;BME280;20944;47.048;15.390;2023-04-22T05:13:41;97352.34;;;9.43;100.00
12759;BME280;20944;47.048;15.390;2023-04-22T05:16:09;97359.63;;;9.63;100.00
12759;BME280;20944;47.048;15.390;2023-04-22T05:18:37;97345.41;;;9.72;100.00
12759;BME280;20944;47.048;15.390;2023-04-22T05:21:07;97361.31;;;9.95;100.00
12759;BME280;20944;47.048;15.390;2023-04-22T05:23:35;97336.81;;;9.98;100.00
12759;BME280;20944;47.048;15.390;2023-04-22T05:26:04;97355.19;;;10.26;100.00
12759;BME280;20944;47.048;15.390;2023-04-22T05:28:33;97357.22;;;10.44;100.00
12759;BME280;20944;47.048;15.390;2023-04-22T05:31:01;97343.94;;;10.50;100.00
12759;BME280;20944;47.048;15.390;2023-04-22T05:33:29;97344.19;;;10.69;100.00
12759;BME280;20944;47.048;15.390;2023-04-22T05:35:57;97351.03;;;10.73;100.00
12759;BME280;20944;47.048;15.390;2023-04-22T05:38:26;97353.78;;;10.70;100.00
12759;BME280;20944;47.048;15.390;2023-04-22T05:40:54;97358.91;;;10.73;100.00
12759;BME280;20944;47.048;15.390;2023-04-22T05:43:24;97353.50;;;10.78;100.00
12759;BME280;20944;47.048;15.390;2023-04-22T05:45:53;97347.50;;;10.74;100.00
12759;BME280;20944;47.048;15.390;2023-04-22T05:48:21;97364.38;;;10.92;100.00
12759;BME280;20944;47.048;15.390;2023-04-22T05:50:50;97348.38;;;11.01;100.00
12759;BME280;20944;47.048;15.390;2023-04-22T05:53:18;97360.50;;;11.29;100.00
12759;BME280;20944;47.048;15.390;2023-04-22T05:55:46;97368.75;;;11.43;100.00
12759;BME280;20944;47.048;15.390;2023-04-22T05:58:14;97276.94;;;10.95;100.00
12759;BME280;20944;47.048;15.390;2023-04-22T06:00:44;97347.66;;;11.46;100.00
12759;BME280;20944;47.048;15.390;2023-04-22T06:03:12;97361.69;;;11.69;100.00
12759;BME280;20944;47.048;15.390;2023-04-22T06:05:41;97350.75;;;11.82;100.00
12759;BME280;20944;47.048;15.390;2023-04-22T06:08:10;97358.88;;;11.98;100.00
12759;BME280;20944;47.048;15.390;2023-04-22T06:10:38;97359.13;;;12.15;100.00
12759;BME280;20944;47.048;15.390;2023-04-22T06:13:06;97358.41;;;12.34;100.00
12759;BME280;20944;47.048;15.390;2023-04-22T06:15:35;97355.28;;;12.46;98.09
12759;BME280;20944;47.048;15.390;2023-04-22T06:18:05;97355.22;;;12.48;97.42
12759;BME280;20944;47.048;15.390;2023-04-22T06:20:33;97352.19;;;12.58;98.26
12759;BME280;20944;47.048;15.390;2023-04-22T06:23:01;97334.50;;;12.62;97.06
12759;BME280;20944;47.048;15.390;2023-04-22T06:25:31;97315.31;;;12.60;95.44
12759;BME280;20944;47.048;15.390;2023-04-22T06:27:59;97299.66;;;12.57;93.98
12759;BME280;20944;47.048;15.390;2023-04-22T06:30:27;97332.88;;;12.80;92.07
12759;BME280;20944;47.048;15.390;2023-04-22T06:32:56;97350.72;;;12.93;91.69
12759;BME280;20944;47.048;15.390;2023-04-22T06:35:26;97358.50;;;12.96;91.22
12759;BME280;20944;47.048;15.390;2023-04-22T06:37:54;97347.78;;;13.01;90.51
12759;BME280;20944;47.048;15.390;2023-04-22T06:40:22;97362.16;;;13.13;89.49
12759;BME280;20944;47.048;15.390;2023-04-22T06:42:50;97363.19;;;13.31;90.65
12759;BME280;20944;47.048;15.390;2023-04-22T06:45:19;97361.75;;;13.44;88.43
12759;BME280;20944;47.048;15.390;2023-04-22T06:47:47;97348.28;;;13.52;88.87
12759;BME280;20944;47.048;15.390;2023-04-22T06:50:15;97366.88;;;13.67;88.06
12759;BME280;20944;47.048;15.390;2023-04-22T06:52:45;97365.03;;;13.88;86.16
12759;BME280;20944;47.048;15.390;2023-04-22T06:55:13;97374.91;;;14.03;84.30
12759;BME280;20944;47.048;15.390;2023-04-22T06:57:42;97367.56;;;14.10;83.67
12759;BME280;20944;47.048;15.390;2023-04-22T07:00:11;97359.56;;;14.12;83.51
12759;BME280;20944;47.048;15.390;2023-04-22T07:02:39;97360.59;;;14.28;84.79
12759;BME280;20944;47.048;15.390;2023-04-22T07:05:08;97356.09;;;14.49;83.95
12759;BME280;20944;47.048;15.390;2023-04-22T07:07:36;97351.16;;;14.41;82.08
12759;BME280;20944;47.048;15.390;2023-04-22T07:10:07;97353.66;;;14.63;80.92
12759;BME280;20944;47.048;15.390;2023-04-22T07:12:36;97338.91;;;14.59;78.96
12759;BME280;20944;47.048;15.390;2023-04-22T07:15:05;97334.84;;;14.71;79.91
12759;BME280;20944;47.048;15.390;2023-04-22T07:17:34;97347.94;;;14.72;78.86
12759;BME280;20944;47.048;15.390;2023-04-22T07:20:02;97344.75;;;14.66;79.87
12759;BME280;20944;47.048;15.390;2023-04-22T07:22:30;97323.41;;;14.53;79.61
12759;BME280;20944;47.048;15.390;2023-04-22T07:24:58;97319.66;;;14.57;80.95
12759;BME280;20944;47.048;15.390;2023-04-22T07:27:28;97331.41;;;14.69;80.29
12759;BME280;20944;47.048;15.390;2023-04-22T07:29:56;97344.16;;;14.95;77.95
12759;BME280;20944;47.048;15.390;2023-04-22T07:32:24;97329.41;;;14.74;78.44
12759;BME280;20944;47.048;15.390;2023-04-22T07:34:53;97313.72;;;14.71;80.33
12759;BME280;20944;47.048;15.390;2023-04-22T07:37:21;97333.75;;;14.92;78.36
12759;BME280;20944;47.048;15.390;2023-04-22T07:39:49;97303.13;;;14.90;79.57
12759;BME280;20944;47.048;15.390;2023-04-22T07:42:17;97336.25;;;15.30;75.97
12759;BME280;20944;47.048;15.390;2023-04-22T07:44:47;97337.84;;;15.32;75.57
12759;BME280;20944;47.048;15.390;2023-04-22T07:47:15;97330.47;;;15.39;77.02
12759;BME280;20944;47.048;15.390;2023-04-22T07:49:44;97337.53;;;15.56;76.08
12759;BME280;20944;47.048;15.390;2023-04-22T07:52:12;97333.94;;;15.74;74.41
12759;BME280;20944;47.048;15.390;2023-04-22T07:54:40;97337.97;;;15.81;74.33
12759;BME280;20944;47.048;15.390;2023-04-22T07:57:08;97334.28;;;15.84;73.52
12759;BME280;20944;47.048;15.390;2023-04-22T07:59:36;97339.00;;;15.79;72.28
12759;BME280;20944;47.048;15.390;2023-04-22T08:02:07;97316.81;;;15.66;71.59
12759;BME280;20944;47.048;15.390;2023-04-22T08:04:35;97324.75;;;15.81;71.76
12759;BME280;20944;47.048;15.390;2023-04-22T08:07:04;97328.25;;;15.82;70.38
12759;BME280;20944;47.048;15.390;2023-04-22T08:09:52;97328.81;;;16.04;71.90
12759;BME280;20944;47.048;15.390;2023-04-22T08:12:22;97341.88;;;16.23;70.55
12759;BME280;20944;47.048;15.390;2023-04-22T08:14:50;97329.56;;;16.38;67.80
12759;BME280;20944;47.048;15.390;2023-04-22T08:17:20;97323.25;;;16.40;66.97
12759;BME280;20944;47.048;15.390;2023-04-22T08:19:48;97326.84;;;16.39;65.87
12759;BME280;20944;47.048;15.390;2023-04-22T08:22:17;97308.19;;;16.11;67.91
12759;BME280;20944;47.048;15.390;2023-04-22T08:24:45;97334.38;;;16.15;65.61
12759;BME280;20944;47.048;15.390;2023-04-22T08:27:13;97314.81;;;16.02;67.64
12759;BME280;20944;47.048;15.390;2023-04-22T08:29:41;97321.56;;;16.24;68.12
12759;BME280;20944;47.048;15.390;2023-04-22T08:32:10;97330.19;;;16.43;66.61
12759;BME280;20944;47.048;15.390;2023-04-22T08:34:39;97324.88;;;16.43;61.49
12759;BME280;20944;47.048;15.390;2023-04-22T08:37:09;97306.03;;;16.33;64.88
12759;BME280;20944;47.048;15.390;2023-04-22T08:39:37;97323.19;;;16.42;63.41
12759;BME280;20944;47.048;15.390;2023-04-22T08:42:06;97297.06;;;16.20;63.83
12759;BME280;20944;47.048;15.390;2023-04-22T08:44:35;97311.00;;;16.24;65.24
12759;BME280;20944;47.048;15.390;2023-04-22T08:47:05;97326.31;;;16.33;67.71
12759;BME280;20944;47.048;15.390;2023-04-22T08:49:34;97326.00;;;16.39;68.99
12759;BME280;20944;47.048;15.390;2023-04-22T08:52:05;97326.25;;;16.50;66.08
12759;BME280;20944;47.048;15.390;2023-04-22T08:54:35;97302.03;;;16.42;67.47
12759;BME280;20944;47.048;15.390;2023-04-22T08:57:04;97273.44;;;16.33;67.10
12759;BME280;20944;47.048;15.390;2023-04-22T08:59:34;97287.56;;;16.63;67.57
12759;BME280;20944;47.048;15.390;2023-04-22T09:02:03;97312.97;;;16.97;69.46
12759;BME280;20944;47.048;15.390;2023-04-22T09:04:32;97324.94;;;17.19;65.43
12759;BME280;20944;47.048;15.390;2023-04-22T09:07:01;97274.41;;;17.08;63.50
12759;BME280;20944;47.048;15.390;2023-04-22T09:09:31;97286.44;;;17.13;66.94
12759;BME280;20944;47.048;15.390;2023-04-22T09:12:00;97272.16;;;17.16;66.10
12759;BME280;20944;47.048;15.390;2023-04-22T09:14:29;97317.91;;;17.48;63.95
12759;BME280;20944;47.048;15.390;2023-04-22T09:16:57;97309.47;;;17.56;61.71
12759;BME280;20944;47.048;15.390;2023-04-22T09:19:25;97303.34;;;17.55;62.41
12759;BME280;20944;47.048;15.390;2023-04-22T09:21:56;97295.56;;;17.52;63.79
12759;BME280;20944;47.048;15.390;2023-04-22T09:24:25;97280.63;;;17.37;64.92
12759;BME280;20944;47.048;15.390;2023-04-22T09:26:55;97292.81;;;17.53;65.94
12759;BME280;20944;47.048;15.390;2023-04-22T09:29:28;97304.28;;;17.68;64.67
12759;BME280;20944;47.048;15.390;2023-04-22T09:31:57;97300.72;;;17.84;62.28
12759;BME280;20944;47.048;15.390;2023-04-22T09:34:26;97293.16;;;17.92;63.27
12759;BME280;20944;47.048;15.390;2023-04-22T09:36:54;97296.34;;;17.97;59.77
12759;BME280;20944;47.048;15.390;2023-04-22T09:39:22;97291.06;;;17.83;60.86
12759;BME280;20944;47.048;15.390;2023-04-22T09:41:55;97283.38;;;17.78;62.75
12759;BME280;20944;47.048;15.390;2023-04-22T09:44:38;97288.78;;;17.91;61.71
12759;BME280;20944;47.048;15.390;2023-04-22T09:47:06;97273.03;;;18.02;62.20
12759;BME280;20944;47.048;15.390;2023-04-22T09:49:36;97286.44;;;18.27;60.32
12759;BME280;20944;47.048;15.390;2023-04-22T09:52:05;97242.00;;;18.04;57.79
12759;BME280;20944;47.048;15.390;2023-04-22T09:54:36;97245.78;;;18.00;59.61
12759;BME280;20944;47.048;15.390;2023-04-22T09:57:07;97276.63;;;18.15;59.97
12759;BME280;20944;47.048;15.390;2023-04-22T09:59:42;97256.69;;;18.22;57.30
12759;BME280;20944;47.048;15.390;2023-04-22T10:02:10;97266.97;;;18.14;58.14
12759;BME280;20944;47.048;15.390;2023-04-22T10:04:38;97275.22;;;17.95;59.19
12759;BME280;20944;47.048;15.390;2023-04-22T10:07:08;97265.53;;;18.23;60.30
12759;BME280;20944;47.048;15.390;2023-04-22T10:09:36;97261.22;;;18.34;60.42
12759;BME280;20944;47.048;15.390;2023-04-22T10:12:05;97233.19;;;18.30;59.27
12759;BME280;20944;47.048;15.390;2023-04-22T10:14:34;97166.88;;;18.03;58.16
12759;BME280;20944;47.048;15.390;2023-04-22T10:17:04;97234.91;;;18.31;58.23
12759;BME280;20944;47.048;15.390;2023-04-22T10:19:33;97256.06;;;18.46;60.76
12759;BME280;20944;47.048;15.390;2023-04-22T10:22:02;97249.41;;;18.53;60.36
12759;BME280;20944;47.048;15.390;2023-04-22T10:24:34;97158.44;;;18.11;63.80
12759;BME280;20944;47.048;15.390;2023-04-22T10:27:04;97266.09;;;18.82;59.98
12759;BME280;20944;47.048;15.390;2023-04-22T10:29:35;97239.66;;;18.93;58.26
12759;BME280;20944;47.048;15.390;2023-04-22T10:32:24;97229.13;;;18.92;59.93
12759;BME280;20944;47.048;15.390;2023-04-22T10:35:11;97240.97;;;19.13;57.36
12759;BME280;20944;47.048;15.390;2023-04-22T10:37:43;97230.97;;;19.17;58.34
12759;BME280;20944;47.048;15.390;2023-04-22T10:40:16;97222.97;;;19.04;54.80
12759;BME280;20944;47.048;15.390;2023-04-22T10:42:48;97239.34;;;19.10;57.65
12759;BME280;20944;47.048;15.390;2023-04-22T10:45:16;97238.50;;;19.23;55.76
12759;BME280;20944;47.048;15.390;2023-04-22T10:47:47;97237.25;;;19.41;60.60
12759;BME280;20944;47.048;15.390;2023-04-22T10:50:21;97238.97;;;19.55;56.75
12759;BME280;20944;47.048;15.390;2023-04-22T10:52:50;97237.03;;;19.57;58.98
12759;BME280;20944;47.048;15.390;2023-04-22T10:55:19;97244.50;;;19.64;56.86
12759;BME280;20944;47.048;15.390;2023-04-22T10:57:49;97234.06;;;19.74;55.20
12759;BME280;20944;47.048;15.390;2023-04-22T11:00:29;97205.75;;;19.73;55.73
12759;BME280;20944;47.048;15.390;2023-04-22T11:03:24;97215.44;;;19.87;53.52
12759;BME280;20944;47.048;15.390;2023-04-22T11:06:13;97213.75;;;20.10;55.19
12759;BME280;20944;47.048;15.390;2023-04-22T11:08:44;97192.94;;;19.91;51.44
12759;BME280;20944;47.048;15.390;2023-04-22T11:11:12;97210.97;;;19.87;53.60
12759;BME280;20944;47.048;15.390;2023-04-22T11:13:41;97229.75;;;19.97;52.24
12759;BME280;20944;47.048;15.390;2023-04-22T11:16:10;97221.03;;;19.95;56.05
12759;BME280;20944;47.048;15.390;2023-04-22T11:18:39;97195.03;;;19.99;55.41
12759;BME280;20944;47.048;15.390;2023-04-22T11:21:08;97201.19;;;20.12;53.40
12759;BME280;20944;47.048;15.390;2023-04-22T11:23:36;97213.75;;;20.34;54.33
12759;BME280;20944;47.048;15.390;2023-04-22T11:26:05;97214.47;;;20.48;54.85
12759;BME280;20944;47.048;15.390;2023-04-22T11:28:33;97176.63;;;20.32;49.65
12759;BME280;20944;47.048;15.390;2023-04-22T11:31:04;97213.84;;;20.45;52.24
12759;BME280;20944;47.048;15.390;2023-04-22T11:33:33;97208.19;;;20.50;52.17
12759;BME280;20944;47.048;15.390;2023-04-22T11:36:03;97203.13;;;20.58;51.64
12759;BME280;20944;47.048;15.390;2023-04-22T11:38:31;97199.06;;;20.65;50.01
12759;BME280;20944;47.048;15.390;2023-04-22T11:41:00;97197.88;;;20.80;51.63
12759;BME280;20944;47.048;15.390;2023-04-22T11:43:30;97188.22;;;20.90;52.47
12759;BME280;20944;47.048;15.390;2023-04-22T11:45:58;97203.31;;;21.14;52.28
12759;BME280;20944;47.048;15.390;2023-04-22T11:48:27;97187.00;;;20.83;49.71
12759;BME280;20944;47.048;15.390;2023-04-22T11:51:09;97184.03;;;20.64;51.60
12759;BME280;20944;47.048;15.390;2023-04-22T11:53:38;97133.47;;;20.40;50.56
12759;BME280;20944;47.048;15.390;2023-04-22T11:56:16;97185.53;;;20.79;48.49
12759;BME280;20944;47.048;15.390;2023-04-22T11:58:44;97194.28;;;20.81;51.00
12759;BME280;20944;47.048;15.390;2023-04-22T12:01:14;97192.44;;;20.82;48.84
12759;BME280;20944;47.048;15.390;2023-04-22T12:03:42;97184.84;;;20.88;49.31
12759;BME280;20944;47.048;15.390;2023-04-22T12:06:12;97178.88;;;20.85;47.62
12759;BME280;20944;47.048;15.390;2023-04-22T12:08:40;97186.47;;;21.13;49.04
12759;BME280;20944;47.048;15.390;2023-04-22T12:11:11;97179.13;;;21.39;48.32
12759;BME280;20944;47.048;15.390;2023-04-22T12:16:13;97167.56;;;21.84;47.38
12759;BME280;20944;47.048;15.390;2023-04-22T12:18:47;97171.78;;;22.08;47.60
12759;BME280;20944;47.048;15.390;2023-04-22T12:21:19;97153.59;;;22.02;47.95
12759;BME280;20944;47.048;15.390;2023-04-22T12:23:51;97134.81;;;21.93;45.75
12759;BME280;20944;47.048;15.390;2023-04-22T12:26:20;97139.00;;;21.41;45.28
12759;BME280;20944;47.048;15.390;2023-04-22T12:28:53;97177.69;;;21.58;45.89
12759;BME280;20944;47.048;15.390;2023-04-22T12:31:21;97167.50;;;21.51;46.43
12759;BME280;20944;47.048;15.390;2023-04-22T12:33:49;97130.25;;;21.27;43.76
12759;BME280;20944;47.048;15.390;2023-04-22T12:36:19;97152.34;;;21.41;44.10
12759;BME280;20944;47.048;15.390;2023-04-22T12:38:48;97129.69;;;21.58;45.67
12759;BME280;20944;47.048;15.390;2023-04-22T12:41:16;97154.56;;;22.01;43.83
12759;BME280;20944;47.048;15.390;2023-04-22T12:43:45;97144.63;;;21.92;43.85
12759;BME280;20944;47.048;15.390;2023-04-22T12:46:13;97161.94;;;22.20;46.78
12759;BME280;20944;47.048;15.390;2023-04-22T12:48:42;97120.94;;;22.21;45.30
12759;BME280;20944;47.048;15.390;2023-04-22T12:51:10;97152.94;;;22.53;44.15
12759;BME280;20944;47.048;15.390;2023-04-22T12:53:39;97134.91;;;22.67;43.31
12759;BME280;20944;47.048;15.390;2023-04-22T12:56:08;97136.75;;;22.87;42.04
12759;BME280;20944;47.048;15.390;2023-04-22T12:58:36;97153.88;;;22.84;42.50
12759;BME280;20944;47.048;15.390;2023-04-22T13:01:04;97139.13;;;23.01;43.21
12759;BME280;20944;47.048;15.390;2023-04-22T13:03:32;97145.88;;;23.05;42.08